sensor_id;sensor_type;location;lat;lon;timestamp;pressure;altitude;pressure_sealevel;temperature;humidity
53715;BME280;39608;55.630;37.864;2023-04-02T00:04:18;98900.50;;;7.75;67.46
53715;BME280;39608;55.630;37.864;2023-04-02T00:09:34;98909.03;;;7.82;67.59
53715;BME280;39608;55.630;37.864;2023-04-02T00:14:44;98909.03;;;7.82;67.91
53715;BME280;39608;55.630;37.864;2023-04-02T00:19:51;98908.84;;;7.78;67.75
53715;BME280;39608;55.630;37.864;2023-04-02T00:24:55;98928.41;;;7.89;67.82
53715;BME280;39608;55.630;37.864;2023-04-02T00:29:58;98914.38;;;7.87;67.87
53715;BME280;39608;55.630;37.864;2023-04-02T00:35:00;98919.47;;;7.88;67.71
53715;BME280;39608;55.630;37.864;2023-04-02T00:40:08;98908.97;;;7.87;67.68
53715;BME280;39608;55.630;37.864;2023-04-02T00:45:21;98930.94;;;7.99;67.58
53715;BME280;39608;55.630;37.864;2023-04-02T00:50:27;98936.13;;;7.96;67.88
53715;BME280;39608;55.630;37.864;2023-04-02T00:55:40;98931.53;;;7.96;67.84
53715;BME280;39608;55.630;37.864;2023-04-02T01:00:48;98935.47;;;8.04;67.86
53715;BME280;39608;55.630;37.864;2023-04-02T01:05:56;98932.03;;;7.98;68.40
53715;BME280;39608;55.630;37.864;2023-04-02T01:11:10;98942.19;;;8.07;67.77
53715;BME280;39608;55.630;37.864;2023-04-02T01:16:21;98938.16;;;8.04;68.26
53715;BME280;39608;55.630;37.864;2023-04-02T01:21:36;98932.16;;;8.07;67.86
53715;BME280;39608;55.630;37.864;2023-04-02T01:26:51;98919.78;;;8.06;68.17
53715;BME280;39608;55.630;37.864;2023-04-02T01:31:57;98920.56;;;8.07;68.23
53715;BME280;39608;55.630;37.864;2023-04-02T01:37:12;98922.91;;;8.13;68.24
53715;BME280;39608;55.630;37.864;2023-04-02T01:42:20;98933.19;;;8.11;68.34
53715;BME280;39608;55.630;37.864;2023-04-02T01:47:27;98934.50;;;8.14;68.22
53715;BME280;39608;55.630;37.864;2023-04-02T01:52:35;98919.91;;;8.15;68.35
53715;BME280;39608;55.630;37.864;2023-04-02T01:57:49;98920.56;;;8.26;68.41
53715;BME280;39608;55.630;37.864;2023-04-02T02:03:01;98929.53;;;8.21;68.08
53715;BME280;39608;55.630;37.864;2023-04-02T02:08:04;98931.22;;;8.17;68.03
53715;BME280;39608;55.630;37.864;2023-04-02T02:13:13;98936.06;;;8.20;68.19
53715;BME280;39608;55.630;37.864;2023-04-02T02:18:19;98934.38;;;8.24;68.38
53715;BME280;39608;55.630;37.864;2023-04-02T02:23:23;98929.84;;;8.19;68.08
53715;BME280;39608;55.630;37.864;2023-04-02T02:28:26;98921.44;;;8.21;67.92
53715;BME280;39608;55.630;37.864;2023-04-02T02:33:33;98939.56;;;8.20;67.77
53715;BME280;39608;55.630;37.864;2023-04-02T02:38:43;98935.03;;;8.16;68.09
53715;BME280;39608;55.630;37.864;2023-04-02T02:43:55;98939.06;;;8.18;67.91
53715;BME280;39608;55.630;37.864;2023-04-02T02:49:00;98928.31;;;8.13;68.12
53715;BME280;39608;55.630;37.864;2023-04-02T02:54:05;98934.50;;;8.14;67.71
53715;BME280;39608;55.630;37.864;2023-04-02T02:59:15;98959.25;;;8.21;68.17
53715;BME280;39608;55.630;37.864;2023-04-02T03:04:23;98949.56;;;8.20;67.87
53715;BME280;39608;55.630;37.864;2023-04-02T03:09:35;98948.44;;;8.21;67.68
53715;BME280;39608;55.630;37.864;2023-04-02T03:14:43;98956.84;;;8.19;67.87
53715;BME280;39608;55.630;37.864;2023-04-02T03:19:52;98942.84;;;8.17;67.73
53715;BME280;39608;55.630;37.864;2023-04-02T03:24:59;98959.34;;;8.16;67.76
53715;BME280;39608;55.630;37.864;2023-04-02T03:30:20;98966.78;;;8.24;67.41
53715;BME280;39608;55.630;37.864;2023-04-02T03:35:34;98967.75;;;8.14;67.64
53715;BME280;39608;55.630;37.864;2023-04-02T03:40:40;98957.78;;;8.10;67.30
53715;BME280;39608;55.630;37.864;2023-04-02T03:45:44;98967.50;;;8.11;67.48
53715;BME280;39608;55.630;37.864;2023-04-02T03:50:55;98979.34;;;8.15;67.57
53715;BME280;39608;55.630;37.864;2023-04-02T03:55:58;98976.63;;;8.15;67.31
53715;BME280;39608;55.630;37.864;2023-04-02T04:01:05;98979.28;;;8.20;67.26
53715;BME280;39608;55.630;37.864;2023-04-02T04:06:14;98978.97;;;8.21;67.02
53715;BME280;39608;55.630;37.864;2023-04-02T04:11:23;98974.66;;;8.20;67.21
53715;BME280;39608;55.630;37.864;2023-04-02T04:16:31;98970.28;;;8.25;67.08
53715;BME280;39608;55.630;37.864;2023-04-02T04:21:36;98975.91;;;8.28;66.91
53715;BME280;39608;55.630;37.864;2023-04-02T04:26:43;98982.53;;;8.36;66.84
53715;BME280;39608;55.630;37.864;2023-04-02T04:31:50;98986.94;;;8.32;66.54
53715;BME280;39608;55.630;37.864;2023-04-02T04:36:58;98989.69;;;8.27;66.58
53715;BME280;39608;55.630;37.864;2023-04-02T04:42:02;98993.28;;;8.22;66.33
53715;BME280;39608;55.630;37.864;2023-04-02T04:47:08;98997.06;;;8.21;66.66
53715;BME280;39608;55.630;37.864;2023-04-02T04:52:18;99007.31;;;8.24;66.46
53715;BME280;39608;55.630;37.864;2023-04-02T04:57:28;99012.63;;;8.29;66.39
53715;BME280;39608;55.630;37.864;2023-04-02T05:02:35;99016.34;;;8.33;66.26
53715;BME280;39608;55.630;37.864;2023-04-02T05:07:46;99006.50;;;8.43;65.95
53715;BME280;39608;55.630;37.864;2023-04-02T05:12:53;99022.09;;;8.51;65.90
53715;BME280;39608;55.630;37.864;2023-04-02T05:18:04;99023.09;;;8.55;65.83
53715;BME280;39608;55.630;37.864;2023-04-02T05:23:13;99024.41;;;8.57;65.66
53715;BME280;39608;55.630;37.864;2023-04-02T05:28:21;99023.97;;;8.50;65.96
53715;BME280;39608;55.630;37.864;2023-04-02T05:33:28;99027.50;;;8.51;66.01
53715;BME280;39608;55.630;37.864;2023-04-02T05:38:34;99032.44;;;8.63;65.56
53715;BME280;39608;55.630;37.864;2023-04-02T05:43:38;99030.56;;;8.63;65.58
53715;BME280;39608;55.630;37.864;2023-04-02T05:48:48;99030.03;;;8.61;65.67
53715;BME280;39608;55.630;37.864;2023-04-02T05:53:54;99044.94;;;8.59;65.70
53715;BME280;39608;55.630;37.864;2023-04-02T05:59:03;99029.53;;;8.59;65.60
53715;BME280;39608;55.630;37.864;2023-04-02T06:04:15;99023.97;;;8.50;65.62
53715;BME280;39608;55.630;37.864;2023-04-02T06:09:23;99035.00;;;8.54;65.39
53715;BME280;39608;55.630;37.864;2023-04-02T06:14:29;99037.41;;;8.55;65.41
53715;BME280;39608;55.630;37.864;2023-04-02T06:19:36;99038.19;;;8.56;65.31
53715;BME280;39608;55.630;37.864;2023-04-02T06:24:40;99037.84;;;8.82;64.52
53715;BME280;39608;55.630;37.864;2023-04-02T06:29:43;99045.66;;;8.64;64.52
53715;BME280;39608;55.630;37.864;2023-04-02T06:34:46;99036.94;;;8.67;64.70
53715;BME280;39608;55.630;37.864;2023-04-02T06:39:49;99045.81;;;8.73;64.41
53715;BME280;39608;55.630;37.864;2023-04-02T06:44:51;99037.41;;;8.75;64.32
53715;BME280;39608;55.630;37.864;2023-04-02T06:49:57;99043.44;;;8.85;63.95
53715;BME280;39608;55.630;37.864;2023-04-02T06:55:05;99039.53;;;9.24;63.56
53715;BME280;39608;55.630;37.864;2023-04-02T07:00:19;99059.47;;;9.15;63.05
53715;BME280;39608;55.630;37.864;2023-04-02T07:05:24;99055.47;;;9.12;62.96
53715;BME280;39608;55.630;37.864;2023-04-02T07:10:27;99041.13;;;9.12;63.26
53715;BME280;39608;55.630;37.864;2023-04-02T07:15:30;99057.53;;;9.01;63.11
53715;BME280;39608;55.630;37.864;2023-04-02T07:20:35;99052.13;;;9.01;62.82
53715;BME280;39608;55.630;37.864;2023-04-02T07:25:39;99056.22;;;8.99;62.91
53715;BME280;39608;55.630;37.864;2023-04-02T07:30:41;99065.59;;;8.87;62.87
53715;BME280;39608;55.630;37.864;2023-04-02T07:35:43;99063.31;;;8.95;62.80
53715;BME280;39608;55.630;37.864;2023-04-02T07:40:47;99063.72;;;9.02;62.64
53715;BME280;39608;55.630;37.864;2023-04-02T07:45:49;99068.53;;;9.05;62.28
53715;BME280;39608;55.630;37.864;2023-04-02T07:50:51;99076.38;;;9.06;62.26
53715;BME280;39608;55.630;37.864;2023-04-02T07:55:54;99078.69;;;9.13;62.16
53715;BME280;39608;55.630;37.864;2023-04-02T08:00:58;99072.56;;;9.07;62.34
53715;BME280;39608;55.630;37.864;2023-04-02T08:06:01;99079.28;;;9.10;62.27
53715;BME280;39608;55.630;37.864;2023-04-02T08:11:05;99082.59;;;9.07;62.57
53715;BME280;39608;55.630;37.864;2023-04-02T08:16:08;99078.56;;;9.04;62.33
53715;BME280;39608;55.630;37.864;2023-04-02T08:21:10;99082.47;;;8.98;62.25
53715;BME280;39608;55.630;37.864;2023-04-02T08:26:17;99089.47;;;8.99;62.34
53715;BME280;39608;55.630;37.864;2023-04-02T08:31:19;99087.06;;;8.98;62.33
53715;BME280;39608;55.630;37.864;2023-04-02T08:36:26;99089.03;;;9.11;62.23
53715;BME280;39608;55.630;37.864;2023-04-02T08:41:35;99088.78;;;9.07;62.08
53715;BME280;39608;55.630;37.864;2023-04-02T08:46:42;99087.72;;;9.08;62.33
53715;BME280;39608;55.630;37.864;2023-04-02T08:51:46;99086.19;;;9.02;62.23
53715;BME280;39608;55.630;37.864;2023-04-02T08:56:53;99077.97;;;9.07;62.31
53715;BME280;39608;55.630;37.864;2023-04-02T09:02:04;99090.63;;;9.12;62.40
53715;BME280;39608;55.630;37.864;2023-04-02T09:07:10;99075.91;;;9.18;62.10
53715;BME280;39608;55.630;37.864;2023-04-02T09:12:17;99074.22;;;9.22;62.22
53715;BME280;39608;55.630;37.864;2023-04-02T09:17:21;99085.69;;;9.33;62.36
53715;BME280;39608;55.630;37.864;2023-04-02T09:22:25;99090.81;;;9.35;62.23
53715;BME280;39608;55.630;37.864;2023-04-02T09:27:34;99088.28;;;9.38;62.35
53715;BME280;39608;55.630;37.864;2023-04-02T09:32:46;99087.81;;;9.50;61.93
53715;BME280;39608;55.630;37.864;2023-04-02T09:38:10;99090.34;;;9.74;62.05
53715;BME280;39608;55.630;37.864;2023-04-02T09:43:19;99090.97;;;9.71;61.93
53715;BME280;39608;55.630;37.864;2023-04-02T09:48:24;99098.38;;;9.80;61.80
53715;BME280;39608;55.630;37.864;2023-04-02T09:53:32;99093.47;;;9.82;61.48
53715;BME280;39608;55.630;37.864;2023-04-02T09:58:36;99096.06;;;9.73;62.00
53715;BME280;39608;55.630;37.864;2023-04-02T10:03:42;99104.50;;;9.71;61.98
53715;BME280;39608;55.630;37.864;2023-04-02T10:08:44;99098.16;;;9.62;62.23
53715;BME280;39608;55.630;37.864;2023-04-02T10:13:53;99087.03;;;9.77;61.98
53715;BME280;39608;55.630;37.864;2023-04-02T10:18:59;99094.56;;;9.81;61.72
53715;BME280;39608;55.630;37.864;2023-04-02T10:24:04;99105.00;;;9.87;61.73
53715;BME280;39608;55.630;37.864;2023-04-02T10:29:28;99097.41;;;10.17;61.72
53715;BME280;39608;55.630;37.864;2023-04-02T10:34:41;99085.13;;;10.20;61.48
53715;BME280;39608;55.630;37.864;2023-04-02T10:39:46;99089.88;;;10.65;60.84
53715;BME280;39608;55.630;37.864;2023-04-02T10:44:54;99081.75;;;11.01;59.77
53715;BME280;39608;55.630;37.864;2023-04-02T10:50:17;99086.19;;;11.20;59.98
53715;BME280;39608;55.630;37.864;2023-04-02T10:55:27;99093.06;;;11.26;59.61
53715;BME280;39608;55.630;37.864;2023-04-02T11:00:34;99100.34;;;11.39;59.33
53715;BME280;39608;55.630;37.864;2023-04-02T11:05:41;99101.81;;;11.45;59.09
53715;BME280;39608;55.630;37.864;2023-04-02T11:10:47;99093.19;;;11.43;59.27
53715;BME280;39608;55.630;37.864;2023-04-02T11:15:51;99079.03;;;11.87;58.38
53715;BME280;39608;55.630;37.864;2023-04-02T11:20:57;99087.22;;;11.95;57.80
53715;BME280;39608;55.630;37.864;2023-04-02T11:26:36;99087.00;;;12.23;58.18
53715;BME280;39608;55.630;37.864;2023-04-02T11:31:43;99076.09;;;11.74;57.75
53715;BME280;39608;55.630;37.864;2023-04-02T11:37:07;99078.75;;;11.97;58.06
53715;BME280;39608;55.630;37.864;2023-04-02T11:42:34;99068.53;;;12.03;57.80
53715;BME280;39608;55.630;37.864;2023-04-02T11:47:38;99077.50;;;11.72;57.57
53715;BME280;39608;55.630;37.864;2023-04-02T11:52:52;99076.53;;;11.68;57.74
53715;BME280;39608;55.630;37.864;2023-04-02T11:58:30;99081.53;;;11.74;57.81
53715;BME280;39608;55.630;37.864;2023-04-02T12:03:47;99076.53;;;11.68;57.84
53715;BME280;39608;55.630;37.864;2023-04-02T12:09:01;99085.00;;;11.66;58.11
53715;BME280;39608;55.630;37.864;2023-04-02T12:14:30;99081.34;;;11.71;57.99
53715;BME280;39608;55.630;37.864;2023-04-02T12:19:34;99077.06;;;11.47;58.38
53715;BME280;39608;55.630;37.864;2023-04-02T12:24:36;99079.03;;;11.55;57.92
53715;BME280;39608;55.630;37.864;2023-04-02T12:29:38;99086.34;;;11.46;57.49
53715;BME280;39608;55.630;37.864;2023-04-02T12:34:44;99084.22;;;11.66;57.55
53715;BME280;39608;55.630;37.864;2023-04-02T12:39:57;99087.00;;;11.83;57.20
53715;BME280;39608;55.630;37.864;2023-04-02T12:45:00;99082.16;;;11.71;57.13
53715;BME280;39608;55.630;37.864;2023-04-02T12:50:11;99082.22;;;11.89;57.13
53715;BME280;39608;55.630;37.864;2023-04-02T12:55:18;99083.47;;;11.82;57.04
53715;BME280;39608;55.630;37.864;2023-04-02T13:00:41;99079.44;;;12.11;56.78
53715;BME280;39608;55.630;37.864;2023-04-02T13:05:49;99068.84;;;12.01;56.21
53715;BME280;39608;55.630;37.864;2023-04-02T13:10:54;99074.03;;;12.20;55.58
53715;BME280;39608;55.630;37.864;2023-04-02T13:16:02;99080.97;;;12.44;55.11
53715;BME280;39608;55.630;37.864;2023-04-02T13:21:22;99071.38;;;12.55;55.31
53715;BME280;39608;55.630;37.864;2023-04-02T13:26:28;99080.78;;;12.31;54.66
53715;BME280;39608;55.630;37.864;2023-04-02T13:31:31;99080.28;;;12.29;54.58
53715;BME280;39608;55.630;37.864;2023-04-02T13:36:35;99078.84;;;12.32;54.59
53715;BME280;39608;55.630;37.864;2023-04-02T13:41:42;99087.84;;;12.41;54.52
53715;BME280;39608;55.630;37.864;2023-04-02T13:46:45;99072.13;;;12.29;54.07
53715;BME280;39608;55.630;37.864;2023-04-02T13:51:50;99082.06;;;12.34;54.58
53715;BME280;39608;55.630;37.864;2023-04-02T13:56:54;99091.97;;;12.30;54.55
53715;BME280;39608;55.630;37.864;2023-04-02T14:02:00;99080.28;;;12.29;54.29
53715;BME280;39608;55.630;37.864;2023-04-02T14:07:38;99092.00;;;12.56;54.38
53715;BME280;39608;55.630;37.864;2023-04-02T14:12:56;99097.09;;;12.40;54.00
53715;BME280;39608;55.630;37.864;2023-04-02T14:18:11;99090.56;;;12.41;54.07
53715;BME280;39608;55.630;37.864;2023-04-02T14:23:28;99078.56;;;12.42;53.99
53715;BME280;39608;55.630;37.864;2023-04-02T14:28:40;99094.56;;;12.53;53.84
53715;BME280;39608;55.630;37.864;2023-04-02T14:33:51;99091.19;;;12.38;53.90
53715;BME280;39608;55.630;37.864;2023-04-02T14:39:04;99087.84;;;12.41;53.85
53715;BME280;39608;55.630;37.864;2023-04-02T14:44:09;99089.09;;;12.35;53.67
53715;BME280;39608;55.630;37.864;2023-04-02T14:49:21;99093.91;;;12.47;54.17
53715;BME280;39608;55.630;37.864;2023-04-02T14:54:32;99089.72;;;12.32;53.67
53715;BME280;39608;55.630;37.864;2023-04-02T14:59:40;99094.69;;;12.30;53.74
53715;BME280;39608;55.630;37.864;2023-04-02T15:04:51;99097.56;;;12.33;53.74
53715;BME280;39608;55.630;37.864;2023-04-02T15:10:05;99089.72;;;12.32;53.90
53715;BME280;39608;55.630;37.864;2023-04-02T15:15:17;99096.59;;;12.29;53.79
53715;BME280;39608;55.630;37.864;2023-04-02T15:20:20;99096.56;;;12.12;53.87
53715;BME280;39608;55.630;37.864;2023-04-02T15:25:30;99098.19;;;12.30;53.62
53715;BME280;39608;55.630;37.864;2023-04-02T15:30:36;99080.56;;;12.10;53.70
53715;BME280;39608;55.630;37.864;2023-04-02T15:35:41;99086.34;;;12.26;53.48
53715;BME280;39608;55.630;37.864;2023-04-02T15:40:52;99083.78;;;12.21;53.29
53715;BME280;39608;55.630;37.864;2023-04-02T15:46:12;99093.88;;;12.29;53.09
53715;BME280;39608;55.630;37.864;2023-04-02T15:51:28;99096.44;;;12.26;53.21
53715;BME280;39608;55.630;37.864;2023-04-02T15:56:40;99106.63;;;12.11;52.90
53715;BME280;39608;55.630;37.864;2023-04-02T16:01:53;99096.22;;;12.05;52.86
53715;BME280;39608;55.630;37.864;2023-04-02T16:07:18;99105.69;;;12.16;52.75
53715;BME280;39608;55.630;37.864;2023-04-02T16:12:32;99114.44;;;12.04;52.25
53715;BME280;39608;55.630;37.864;2023-04-02T16:17:39;99110.25;;;11.98;52.08
53715;BME280;39608;55.630;37.864;2023-04-02T16:22:43;99115.09;;;11.78;52.44
53715;BME280;39608;55.630;37.864;2023-04-02T16:27:57;99127.59;;;11.79;52.50
53715;BME280;39608;55.630;37.864;2023-04-02T16:33:26;99133.94;;;11.75;52.84
53715;BME280;39608;55.630;37.864;2023-04-02T16:38:43;99143.09;;;11.56;53.12
53715;BME280;39608;55.630;37.864;2023-04-02T16:43:56;99141.69;;;11.59;53.36
53715;BME280;39608;55.630;37.864;2023-04-02T16:49:10;99138.28;;;11.53;52.91
53715;BME280;39608;55.630;37.864;2023-04-02T16:54:17;99141.31;;;11.52;53.09
53715;BME280;39608;55.630;37.864;2023-04-02T16:59:28;99141.31;;;11.52;53.03
53715;BME280;39608;55.630;37.864;2023-04-02T17:04:51;99138.47;;;11.57;53.06
53715;BME280;39608;55.630;37.864;2023-04-02T17:10:03;99138.09;;;11.50;52.95
53715;BME280;39608;55.630;37.864;2023-04-02T17:15:19;99127.63;;;11.34;53.04
53715;BME280;39608;55.630;37.864;2023-04-02T17:20:25;99153.25;;;11.42;52.86
53715;BME280;39608;55.630;37.864;2023-04-02T17:25:30;99152.72;;;11.40;52.98
53715;BME280;39608;55.630;37.864;2023-04-02T17:30:37;99155.88;;;11.33;53.03
53715;BME280;39608;55.630;37.864;2023-04-02T17:35:51;99159.56;;;11.37;52.78
53715;BME280;39608;55.630;37.864;2023-04-02T17:41:01;99154.97;;;11.38;53.04
53715;BME280;39608;55.630;37.864;2023-04-02T17:46:14;99166.13;;;11.36;53.07
53715;BME280;39608;55.630;37.864;2023-04-02T17:51:23;99168.91;;;11.22;52.96
53715;BME280;39608;55.630;37.864;2023-04-02T17:56:42;99170.59;;;11.32;53.26
53715;BME280;39608;55.630;37.864;2023-04-02T18:01:54;99177.41;;;11.29;53.03
53715;BME280;39608;55.630;37.864;2023-04-02T18:07:18;99167.97;;;11.27;53.40
53715;BME280;39608;55.630;37.864;2023-04-02T18:12:32;99174.97;;;11.19;53.18
53715;BME280;39608;55.630;37.864;2023-04-02T18:17:45;99179.81;;;11.54;52.99
53715;BME280;39608;55.630;37.864;2023-04-02T18:22:54;99188.22;;;11.21;52.75
53715;BME280;39608;55.630;37.864;2023-04-02T18:28:09;99173.56;;;11.08;53.01
53715;BME280;39608;55.630;37.864;2023-04-02T18:33:35;99189.25;;;11.11;52.95
53715;BME280;39608;55.630;37.864;2023-04-02T18:38:46;99187.06;;;10.99;53.30
53715;BME280;39608;55.630;37.864;2023-04-02T18:44:03;99196.72;;;11.05;52.99
53715;BME280;39608;55.630;37.864;2023-04-02T18:49:19;99184.34;;;10.99;53.32
53715;BME280;39608;55.630;37.864;2023-04-02T18:54:30;99197.84;;;10.90;53.30
53715;BME280;39608;55.630;37.864;2023-04-02T18:59:38;99203.19;;;10.82;53.43
53715;BME280;39608;55.630;37.864;2023-04-02T19:04:45;99203.38;;;10.71;53.94
53715;BME280;39608;55.630;37.864;2023-04-02T19:09:50;99207.72;;;10.58;54.25
53715;BME280;39608;55.630;37.864;2023-04-02T19:14:53;99204.81;;;10.55;54.07
53715;BME280;39608;55.630;37.864;2023-04-02T19:20:07;99210.66;;;10.62;54.00
53715;BME280;39608;55.630;37.864;2023-04-02T19:25:23;99204.81;;;10.55;54.29
53715;BME280;39608;55.630;37.864;2023-04-02T19:30:46;99151.16;;;10.24;54.32
53715;BME280;39608;55.630;37.864;2023-04-02T19:35:56;99202.50;;;10.48;54.53
53715;BME280;39608;55.630;37.864;2023-04-02T19:41:02;99209.25;;;10.51;54.42
53715;BME280;39608;55.630;37.864;2023-04-02T19:46:07;99212.84;;;10.46;54.27
53715;BME280;39608;55.630;37.864;2023-04-02T19:51:10;99211.25;;;10.45;54.57
53715;BME280;39608;55.630;37.864;2023-04-02T19:56:12;99207.81;;;10.39;54.59
53715;BME280;39608;55.630;37.864;2023-04-02T20:01:14;99224.59;;;10.41;54.73
53715;BME280;39608;55.630;37.864;2023-04-02T20:06:18;99224.59;;;10.41;54.86
53715;BME280;39608;55.630;37.864;2023-04-02T20:11:20;99219.84;;;10.33;54.68
53715;BME280;39608;55.630;37.864;2023-04-02T20:16:23;99212.50;;;10.20;55.02
53715;BME280;39608;55.630;37.864;2023-04-02T20:21:26;99220.34;;;10.21;55.46
53715;BME280;39608;55.630;37.864;2023-04-02T20:26:34;99224.47;;;10.19;54.95
53715;BME280;39608;55.630;37.864;2023-04-02T20:31:36;99211.59;;;10.10;55.22
53715;BME280;39608;55.630;37.864;2023-04-02T20:36:40;99218.91;;;10.10;55.27
53715;BME280;39608;55.630;37.864;2023-04-02T20:41:42;99225.06;;;10.16;55.57
53715;BME280;39608;55.630;37.864;2023-04-02T20:46:44;99226.66;;;10.17;55.53
53715;BME280;39608;55.630;37.864;2023-04-02T20:51:47;99224.47;;;10.19;55.35
53715;BME280;39608;55.630;37.864;2023-04-02T20:56:51;99237.78;;;10.15;55.30
53715;BME280;39608;55.630;37.864;2023-04-02T21:01:53;99233.75;;;10.13;55.39
53715;BME280;39608;55.630;37.864;2023-04-02T21:06:56;99226.16;;;10.15;55.44
53715;BME280;39608;55.630;37.864;2023-04-02T21:11:58;99232.97;;;10.12;55.78
53715;BME280;39608;55.630;37.864;2023-04-02T21:17:02;99228.94;;;10.09;55.87
53715;BME280;39608;55.630;37.864;2023-04-02T21:22:06;99228.16;;;10.09;55.87
53715;BME280;39608;55.630;37.864;2023-04-02T21:27:08;99222.41;;;9.97;56.50
53715;BME280;39608;55.630;37.864;2023-04-02T21:32:10;99225.50;;;9.90;56.18
53715;BME280;39608;55.630;37.864;2023-04-02T21:37:14;99240.66;;;9.91;56.05
53715;BME280;39608;55.630;37.864;2023-04-02T21:42:16;99232.59;;;9.86;56.22
53715;BME280;39608;55.630;37.864;2023-04-02T21:47:19;99237.53;;;9.84;56.51
53715;BME280;39608;55.630;37.864;2023-04-02T21:52:24;99235.31;;;9.86;56.20
53715;BME280;39608;55.630;37.864;2023-04-02T21:57:28;99244.53;;;9.85;56.20
53715;BME280;39608;55.630;37.864;2023-04-02T22:02:29;99247.53;;;9.83;56.27
53715;BME280;39608;55.630;37.864;2023-04-02T22:07:33;99244.16;;;9.91;56.23
53715;BME280;39608;55.630;37.864;2023-04-02T22:12:35;99241.13;;;9.93;56.34
53715;BME280;39608;55.630;37.864;2023-04-02T22:17:37;99240.66;;;9.91;56.55
53715;BME280;39608;55.630;37.864;2023-04-02T22:22:40;99234.53;;;9.85;56.35
53715;BME280;39608;55.630;37.864;2023-04-02T22:27:42;99243.72;;;9.84;56.43
53715;BME280;39608;55.630;37.864;2023-04-02T22:32:44;99249.38;;;9.88;56.78
53715;BME280;39608;55.630;37.864;2023-04-02T22:37:48;99247.09;;;9.95;56.83
53715;BME280;39608;55.630;37.864;2023-04-02T22:42:50;99251.41;;;9.96;56.44
53715;BME280;39608;55.630;37.864;2023-04-02T22:47:52;99246.97;;;10.00;56.64
53715;BME280;39608;55.630;37.864;2023-04-02T22:52:56;99239.28;;;10.07;56.50
53715;BME280;39608;55.630;37.864;2023-04-02T22:57:58;99244.72;;;10.07;56.16
53715;BME280;39608;55.630;37.864;2023-04-02T23:03:00;99243.59;;;10.08;56.34
53715;BME280;39608;55.630;37.864;2023-04-02T23:08:03;99239.69;;;10.15;56.68
53715;BME280;39608;55.630;37.864;2023-04-02T23:13:05;99241.88;;;10.13;56.30
53715;BME280;39608;55.630;37.864;2023-04-02T23:18:07;99242.50;;;10.09;56.40
53715;BME280;39608;55.630;37.864;2023-04-02T23:23:10;99240.88;;;10.08;56.45
53715;BME280;39608;55.630;37.864;2023-04-02T23:28:12;99253.72;;;10.03;56.51
53715;BME280;39608;55.630;37.864;2023-04-02T23:33:14;99250.81;;;9.99;56.40
53715;BME280;39608;55.630;37.864;2023-04-02T23:38:19;99250.22;;;10.02;56.43
53715;BME280;39608;55.630;37.864;2023-04-02T23:43:21;99242.38;;;10.01;56.26
53715;BME280;39608;55.630;37.864;2023-04-02T23:48:23;99245.09;;;10.01;56.24
53715;BME280;39608;55.630;37.864;2023-04-02T23:53:26;99251.31;;;10.01;56.83
53715;BME280;39608;55.630;37.864;2023-04-02T23:58:28;99236.03;;;9.91;56.78
